createdAt,value
2023-01-02T00:00:30.427Z,14.90
2023-01-02T00:03:20.541Z,14.80
2023-01-02T00:06:02.638Z,14.80
2023-01-02T00:08:50.475Z,14.60
2023-01-02T00:11:31.636Z,14.50
2023-01-02T00:14:20.432Z,14.40
2023-01-02T00:17:02.621Z,14.30
2023-01-02T00:19:52.396Z,14.20
2023-01-02T00:22:33.644Z,14.10
2023-01-02T00:25:22.404Z,14.10
2023-01-02T00:28:04.682Z,14.10
2023-01-02T00:30:52.434Z,14.00
2023-01-02T00:33:40.427Z,14.00
2023-01-02T00:36:23.668Z,14.00
2023-01-02T00:39:14.013Z,14.00
2023-01-02T00:41:56.399Z,14.00
2023-01-02T00:44:45.454Z,14.00
2023-01-02T00:47:27.353Z,13.90
2023-01-02T00:50:15.789Z,14.00
2023-01-02T00:52:58.799Z,14.00
2023-01-02T00:55:46.425Z,14.00
2023-01-02T00:58:28.355Z,14.10
2023-01-02T01:01:16.576Z,14.10
2023-01-02T01:04:05.412Z,14.10
2023-01-02T01:06:46.621Z,14.00
2023-01-02T01:09:37.410Z,14.00
2023-01-02T01:12:18.627Z,14.10
2023-01-02T01:15:06.481Z,14.10
2023-01-02T01:17:48.668Z,14.20
2023-01-02T01:20:37.466Z,14.20
2023-01-02T01:23:18.595Z,14.20
2023-01-02T01:26:12.453Z,14.20
2023-01-02T01:28:54.730Z,14.20
2023-01-02T01:31:42.582Z,14.20
2023-01-02T01:34:31.426Z,14.10
2023-01-02T01:37:13.310Z,14.20
2023-01-02T01:40:02.436Z,14.00
2023-01-02T01:42:48.024Z,14.10
2023-01-02T01:45:37.543Z,14.00
2023-01-02T01:48:32.415Z,14.00
2023-01-02T01:51:21.441Z,14.00
2023-01-02T01:54:12.599Z,14.00
2023-01-02T01:57:05.492Z,14.00
2023-01-02T01:59:48.707Z,14.00
2023-01-02T02:02:39.515Z,14.00
2023-01-02T02:05:26.652Z,14.00
2023-01-02T02:08:23.451Z,14.00
2023-01-02T02:11:13.529Z,14.00
2023-01-02T02:13:59.502Z,14.00
2023-01-02T02:16:56.491Z,14.00
2023-01-02T02:20:12.856Z,14.00
2023-01-02T02:23:37.445Z,14.00
2023-01-02T02:27:02.457Z,14.00
2023-01-02T02:30:18.640Z,14.00
2023-01-02T02:33:42.585Z,14.00
2023-01-02T02:36:30.717Z,14.10
2023-01-02T02:39:29.469Z,14.10
2023-01-02T02:42:19.712Z,14.10
2023-01-02T02:45:13.563Z,14.10
2023-01-02T02:48:02.682Z,14.00
2023-01-02T02:50:57.521Z,14.10
2023-01-02T02:53:45.619Z,14.10
2023-01-02T02:56:36.481Z,14.10
2023-01-02T02:59:19.676Z,14.00
2023-01-02T03:02:07.726Z,14.10
2023-01-02T03:04:58.536Z,14.20
2023-01-02T03:07:50.396Z,14.20
2023-01-02T03:10:48.510Z,14.10
2023-01-02T03:13:41.609Z,14.00
2023-01-02T03:16:36.618Z,14.10
2023-01-02T03:19:24.620Z,14.00
2023-01-02T03:22:19.595Z,14.00
2023-01-02T03:25:04.233Z,14.00
2023-01-02T03:27:57.535Z,14.10
2023-01-02T03:30:42.135Z,14.10
2023-01-02T03:33:32.471Z,13.90
2023-01-02T03:36:27.569Z,13.80
2023-01-02T03:39:17.071Z,13.80
2023-01-02T03:42:09.510Z,13.80
2023-01-02T03:44:55.675Z,13.80
2023-01-02T03:47:49.547Z,13.80
2023-01-02T03:50:41.721Z,13.80
2023-01-02T03:53:23.476Z,13.70
2023-01-02T03:56:17.715Z,13.70
2023-01-02T03:59:11.477Z,13.70
2023-01-02T04:02:06.563Z,13.60
2023-01-02T04:04:53.691Z,13.60
2023-01-02T04:07:49.521Z,13.50
2023-01-02T04:10:32.721Z,13.50
2023-01-02T04:13:26.488Z,13.50
2023-01-02T04:16:10.838Z,13.60
2023-01-02T04:19:02.504Z,13.60
2023-01-02T04:21:48.769Z,13.60
2023-01-02T04:24:40.494Z,13.60
2023-01-02T04:27:28.774Z,13.60
2023-01-02T04:30:19.515Z,13.60
2023-01-02T04:33:02.677Z,13.60
2023-01-02T04:35:50.585Z,13.50
2023-01-02T04:38:39.495Z,13.50
2023-01-02T04:41:27.152Z,13.40
2023-01-02T04:44:15.872Z,13.40
2023-01-02T04:46:58.760Z,13.40
2023-01-02T04:49:46.560Z,13.40
2023-01-02T04:52:35.069Z,13.40
2023-01-02T04:55:25.514Z,13.30
2023-01-02T04:58:08.036Z,13.40
2023-01-02T05:00:56.526Z,13.30
2023-01-02T05:03:48.552Z,13.30
2023-01-02T05:06:29.752Z,13.30
2023-01-02T05:09:18.575Z,13.30
2023-01-02T05:11:59.732Z,13.20
2023-01-02T05:14:47.548Z,13.10
2023-01-02T05:17:28.716Z,13.10
2023-01-02T05:20:19.583Z,13.20
2023-01-02T05:23:18.486Z,13.20
2023-01-02T05:26:06.561Z,13.20
2023-01-02T05:28:47.674Z,13.10
2023-01-02T05:31:36.530Z,13.10
2023-01-02T05:34:28.568Z,13.10
2023-01-02T05:37:11.826Z,13.00
2023-01-02T05:39:59.607Z,13.10
2023-01-02T05:42:41.481Z,13.10
2023-01-02T05:45:30.531Z,13.00
2023-01-02T05:48:12.503Z,13.00
2023-01-02T05:51:00.623Z,13.00
2023-01-02T05:53:44.138Z,13.00
2023-01-02T05:56:33.545Z,13.00
2023-01-02T05:59:16.095Z,12.90
2023-01-02T06:02:03.591Z,12.90
2023-01-02T06:04:51.515Z,12.70
2023-01-02T06:07:32.764Z,12.80
2023-01-02T06:10:22.583Z,12.70
2023-01-02T06:13:06.713Z,12.60
2023-01-02T06:15:54.574Z,12.40
2023-01-02T06:18:37.831Z,12.30
2023-01-02T06:21:27.596Z,12.30
2023-01-02T06:24:08.778Z,12.20
2023-01-02T06:26:58.602Z,12.10
2023-01-02T06:29:46.561Z,12.00
2023-01-02T06:32:28.469Z,12.00
2023-01-02T06:35:16.569Z,12.00
2023-01-02T06:37:58.434Z,12.00
2023-01-02T06:40:46.540Z,11.90
2023-01-02T06:43:30.947Z,12.00
2023-01-02T06:46:19.651Z,12.10
2023-01-02T06:49:07.743Z,12.10
2023-01-02T06:51:49.584Z,12.10
2023-01-02T06:54:31.426Z,12.10
2023-01-02T06:57:19.661Z,12.00
2023-01-02T07:00:09.553Z,12.00
2023-01-02T07:02:51.930Z,12.00
2023-01-02T07:05:39.631Z,12.00
2023-01-02T07:08:23.846Z,12.00
2023-01-02T07:11:16.550Z,12.10
2023-01-02T07:13:59.809Z,12.10
2023-01-02T07:16:49.651Z,12.10
2023-01-02T07:19:30.817Z,12.10
2023-01-02T07:22:18.586Z,12.10
2023-01-02T07:25:08.567Z,12.20
2023-01-02T07:27:50.611Z,12.10
2023-01-02T07:30:38.559Z,12.00
2023-01-02T07:33:21.899Z,12.10
2023-01-02T07:36:12.538Z,12.00
2023-01-02T07:38:55.633Z,12.00
2023-01-02T07:41:43.643Z,11.90
2023-01-02T07:44:26.427Z,12.00
2023-01-02T07:47:15.792Z,12.00
2023-01-02T07:50:12.565Z,11.90
2023-01-02T07:53:00.606Z,11.90
2023-01-02T07:55:49.595Z,11.90
2023-01-02T07:58:32.182Z,11.90
2023-01-02T08:01:21.758Z,11.90
2023-01-02T08:04:03.843Z,12.00
2023-01-02T08:06:55.631Z,12.00
2023-01-02T08:09:37.583Z,12.10
2023-01-02T08:12:26.577Z,12.00
2023-01-02T08:15:09.457Z,12.00
2023-01-02T08:17:58.585Z,12.10
2023-01-02T08:20:53.562Z,12.00
2023-01-02T08:23:37.263Z,11.90
2023-01-02T08:26:25.649Z,11.90
2023-01-02T08:29:09.141Z,12.00
2023-01-02T08:31:57.570Z,12.00
2023-01-02T08:34:39.557Z,12.00
2023-01-02T08:37:28.604Z,12.10
2023-01-02T08:40:13.143Z,12.10
2023-01-02T08:43:01.675Z,12.00
2023-01-02T08:45:43.504Z,12.00
2023-01-02T08:48:31.676Z,12.10
2023-01-02T08:51:26.601Z,12.10
2023-01-02T08:54:08.592Z,12.20
2023-01-02T08:56:58.603Z,12.30
2023-01-02T08:59:40.495Z,12.30
2023-01-02T09:02:29.798Z,12.40
2023-01-02T09:05:11.783Z,12.30
2023-01-02T09:08:00.685Z,12.30
2023-01-02T09:10:42.543Z,12.30
2023-01-02T09:13:32.641Z,12.30
2023-01-02T09:16:20.678Z,12.30
2023-01-02T09:19:04.839Z,12.40
2023-01-02T09:21:53.599Z,12.50
2023-01-02T09:24:35.902Z,12.40
2023-01-02T09:27:24.625Z,12.40
2023-01-02T09:30:07.974Z,12.40
2023-01-02T09:32:57.566Z,12.30
2023-01-02T09:35:41.768Z,12.30
2023-01-02T09:38:29.674Z,12.30
2023-01-02T09:41:29.611Z,12.20
2023-01-02T09:44:17.857Z,12.30
2023-01-02T09:47:11.682Z,12.20
2023-01-02T09:50:03.503Z,12.20
2023-01-02T09:52:50.681Z,12.20
2023-01-02T09:55:39.479Z,12.20
2023-01-02T09:58:40.610Z,12.30
2023-01-02T10:01:28.856Z,12.30
2023-01-02T10:04:31.627Z,12.40
2023-01-02T10:07:18.266Z,12.40
2023-01-02T10:10:11.653Z,12.50
2023-01-02T10:13:05.165Z,12.40
2023-01-02T10:15:59.724Z,12.20
2023-01-02T10:18:44.876Z,12.20
2023-01-02T10:21:38.718Z,12.40
2023-01-02T10:24:32.685Z,12.40
2023-01-02T10:27:20.882Z,12.40
2023-01-02T10:30:15.948Z,12.30
2023-01-02T10:33:04.804Z,12.30
2023-01-02T10:35:58.694Z,12.00
2023-01-02T10:38:45.191Z,11.90
2023-01-02T10:41:33.636Z,12.00
2023-01-02T10:44:27.839Z,12.00
2023-01-02T10:47:25.610Z,12.10
2023-01-02T10:50:08.893Z,12.20
2023-01-02T10:52:58.648Z,12.40
2023-01-02T10:55:53.729Z,12.40
2023-01-02T10:58:36.559Z,12.50
2023-01-02T11:01:27.777Z,12.50
2023-01-02T11:04:13.896Z,12.50
2023-01-02T11:07:08.694Z,12.60
2023-01-02T11:09:56.542Z,12.60
2023-01-02T11:12:46.639Z,12.40
2023-01-02T11:15:33.391Z,12.40
2023-01-02T11:18:31.639Z,12.20
2023-01-02T11:21:13.639Z,12.10
2023-01-02T11:24:02.634Z,12.10
2023-01-02T11:26:45.647Z,12.00
2023-01-02T11:29:42.708Z,11.80
2023-01-02T11:32:34.663Z,11.90
2023-01-02T11:35:41.818Z,11.80
2023-01-02T11:38:33.668Z,11.70
2023-01-02T11:41:55.677Z,11.70
2023-01-02T11:44:57.635Z,11.80
2023-01-02T11:47:41.895Z,11.80
2023-01-02T11:50:32.763Z,11.80
2023-01-02T11:53:29.690Z,11.80
2023-01-02T11:56:18.573Z,11.90
2023-01-02T11:59:17.746Z,12.10
2023-01-02T12:02:07.094Z,12.20
2023-01-02T12:04:55.662Z,12.10
2023-01-02T12:07:44.329Z,12.10
2023-01-02T12:10:47.746Z,12.00
2023-01-02T12:13:47.512Z,12.00
2023-01-02T12:16:56.773Z,11.90
2023-01-02T12:20:06.663Z,11.90
2023-01-02T12:23:15.272Z,12.10
2023-01-02T12:26:18.677Z,12.00
2023-01-02T12:29:46.604Z,12.10
2023-01-02T12:33:28.673Z,12.00
2023-01-02T12:36:35.866Z,12.00
2023-01-02T12:39:38.766Z,12.00
2023-01-02T12:42:36.898Z,11.90
2023-01-02T12:45:33.716Z,11.80
2023-01-02T12:48:29.960Z,11.90
2023-01-02T12:51:27.674Z,12.00
2023-01-02T12:54:45.678Z,12.00
2023-01-02T12:57:36.907Z,12.10
2023-01-02T13:00:59.719Z,12.10
2023-01-02T13:04:00.140Z,12.10
2023-01-02T13:06:57.672Z,12.00
2023-01-02T13:09:42.143Z,12.10
2023-01-02T13:12:32.703Z,12.00
2023-01-02T13:15:20.730Z,12.10
2023-01-02T13:18:17.678Z,12.00
2023-01-02T13:21:04.731Z,12.00
2023-01-02T13:23:58.702Z,11.90
2023-01-02T13:26:41.349Z,11.90
2023-01-02T13:29:37.765Z,12.00
2023-01-02T13:32:34.781Z,11.90
2023-01-02T13:35:18.925Z,11.90
2023-01-02T13:38:10.819Z,11.80
2023-01-02T13:41:00.937Z,11.80
2023-01-02T13:43:49.679Z,11.90
2023-01-02T13:47:04.444Z,12.00
2023-01-02T13:49:45.711Z,12.00
2023-01-02T13:52:29.971Z,12.00
2023-01-02T13:55:38.895Z,12.10
2023-01-02T13:58:56.677Z,12.30
2023-01-02T14:02:06.989Z,12.40
2023-01-02T14:04:55.817Z,12.30
2023-01-02T14:07:49.488Z,12.20
2023-01-02T14:10:54.790Z,11.60
2023-01-02T14:13:42.278Z,11.20
2023-01-02T14:16:55.694Z,11.00
2023-01-02T14:19:38.383Z,10.90
2023-01-02T14:22:29.773Z,10.70
2023-01-02T14:25:13.419Z,10.70
2023-01-02T14:28:05.724Z,10.70
2023-01-02T14:30:50.550Z,10.70
2023-01-02T14:33:47.715Z,10.60
2023-01-02T14:36:45.689Z,10.70
2023-01-02T14:39:33.643Z,10.70
2023-01-02T14:42:48.700Z,10.60
2023-01-02T14:45:31.411Z,10.60
2023-01-02T14:48:30.785Z,10.70
2023-01-02T14:51:30.811Z,10.60
2023-01-02T14:54:16.713Z,10.60
2023-01-02T14:57:09.716Z,10.60
2023-01-02T15:00:20.825Z,10.50
2023-01-02T15:03:26.907Z,10.50
2023-01-02T15:06:16.703Z,10.60
2023-01-02T15:09:17.751Z,10.60
2023-01-02T15:12:27.710Z,10.70
2023-01-02T15:15:12.309Z,10.60
2023-01-02T15:18:01.752Z,10.60
2023-01-02T15:20:49.577Z,10.60
2023-01-02T15:23:39.709Z,10.60
2023-01-02T15:26:33.375Z,10.50
2023-01-02T15:29:36.769Z,10.60
2023-01-02T15:32:21.816Z,10.60
2023-01-02T15:35:24.739Z,10.60
2023-01-02T15:38:28.729Z,10.60
2023-01-02T15:41:12.015Z,10.60
2023-01-02T15:44:20.724Z,10.70
2023-01-02T15:47:04.813Z,10.70
2023-01-02T15:49:54.817Z,10.90
2023-01-02T15:52:44.041Z,10.90
2023-01-02T15:55:27.818Z,11.00
2023-01-02T15:58:32.782Z,10.90
2023-01-02T16:01:20.231Z,10.90
2023-01-02T16:04:12.766Z,10.90
2023-01-02T16:06:55.251Z,10.90
2023-01-02T16:09:43.948Z,11.00
2023-01-02T16:12:29.229Z,11.10
2023-01-02T16:15:17.795Z,11.10
2023-01-02T16:18:02.033Z,11.00
2023-01-02T16:20:56.919Z,11.00
2023-01-02T16:23:39.212Z,11.00
2023-01-02T16:26:29.819Z,10.80
2023-01-02T16:29:18.198Z,10.80
2023-01-02T16:32:07.842Z,10.80
2023-01-02T16:34:58.836Z,10.90
2023-01-02T16:37:46.969Z,10.90
2023-01-02T16:40:59.718Z,10.80
2023-01-02T16:43:47.020Z,10.80
2023-01-02T16:46:36.909Z,10.60
2023-01-02T16:49:20.934Z,10.60
2023-01-02T16:52:09.768Z,10.60
2023-01-02T16:54:54.310Z,10.60
2023-01-02T16:57:43.749Z,10.40
2023-01-02T17:00:25.782Z,10.40
2023-01-02T17:03:16.541Z,10.40
2023-01-02T17:06:01.337Z,10.30
2023-01-02T17:08:51.736Z,10.30
2023-01-02T17:11:40.749Z,10.20
2023-01-02T17:14:23.035Z,10.20
2023-01-02T17:17:11.769Z,10.20
2023-01-02T17:19:55.035Z,10.20
2023-01-02T17:22:43.743Z,10.30
2023-01-02T17:25:26.117Z,10.30
2023-01-02T17:28:15.502Z,10.20
2023-01-02T17:30:57.063Z,10.20
2023-01-02T17:33:45.755Z,10.20
2023-01-02T17:36:28.976Z,10.20
2023-01-02T17:39:16.761Z,10.10
2023-01-02T17:41:59.031Z,9.90
2023-01-02T17:44:47.779Z,9.90
2023-01-02T17:48:00.718Z,9.90
2023-01-02T17:50:52.799Z,9.90
2023-01-02T17:53:42.795Z,9.90
2023-01-02T17:56:25.534Z,9.90
2023-01-02T17:59:13.746Z,9.80
2023-01-02T18:01:56.180Z,9.80
2023-01-02T18:04:51.093Z,9.70
2023-01-02T18:07:43.783Z,9.80
2023-01-02T18:10:32.598Z,9.90
2023-01-02T18:13:21.815Z,9.90
2023-01-02T18:16:06.464Z,9.90
2023-01-02T18:18:54.776Z,9.80
2023-01-02T18:21:37.002Z,9.80
2023-01-02T18:24:29.755Z,9.80
2023-01-02T18:27:21.888Z,9.80
2023-01-02T18:30:13.763Z,9.80
2023-01-02T18:33:02.433Z,9.80
2023-01-02T18:35:59.057Z,9.80
2023-01-02T18:38:47.804Z,9.80
2023-01-02T18:41:33.055Z,9.80
2023-01-02T18:44:28.775Z,9.80
2023-01-02T18:47:20.964Z,9.80
2023-01-02T18:50:28.820Z,9.90
2023-01-02T18:53:26.035Z,9.90
2023-01-02T18:56:09.809Z,9.90
2023-01-02T18:58:59.550Z,10.00
2023-01-02T19:01:53.894Z,10.00
2023-01-02T19:04:44.939Z,10.00
2023-01-02T19:07:34.723Z,10.00
2023-01-02T19:10:41.858Z,10.10
2023-01-02T19:13:26.095Z,10.10
2023-01-02T19:16:20.902Z,10.20
2023-01-02T19:19:04.041Z,10.10
2023-01-02T19:21:53.379Z,10.00
2023-01-02T19:24:41.220Z,9.90
2023-01-02T19:27:34.666Z,9.90
2023-01-02T19:30:38.568Z,9.80
2023-01-02T19:33:47.149Z,9.80
2023-01-02T19:36:40.399Z,9.90
2023-01-02T19:39:33.844Z,9.90
2023-01-02T19:42:26.893Z,9.90
2023-01-02T19:45:12.146Z,9.90
2023-01-02T19:48:00.801Z,9.80
2023-01-02T19:50:55.791Z,9.80
2023-01-02T19:53:45.804Z,9.80
2023-01-02T19:56:27.047Z,9.80
2023-01-02T19:59:16.430Z,9.80
2023-01-02T20:01:58.522Z,9.80
2023-01-02T20:04:47.832Z,9.90
2023-01-02T20:07:31.213Z,9.80
2023-01-02T20:10:21.801Z,9.70
2023-01-02T20:13:10.811Z,9.80
2023-01-02T20:15:52.904Z,9.80
2023-01-02T20:18:40.892Z,9.80
2023-01-02T20:21:23.404Z,9.80
2023-01-02T20:24:10.793Z,9.80
2023-01-02T20:26:54.313Z,9.80
2023-01-02T20:29:43.819Z,9.70
2023-01-02T20:32:26.567Z,9.70
2023-01-02T20:35:15.547Z,9.60
2023-01-02T20:37:56.766Z,9.60
2023-01-02T20:40:44.910Z,9.50
2023-01-02T20:43:34.844Z,9.60
2023-01-02T20:46:16.845Z,9.60
2023-01-02T20:49:05.843Z,9.70
2023-01-02T20:52:02.869Z,9.70
2023-01-02T20:57:38.091Z,9.70
2023-01-02T21:00:27.829Z,9.80
2023-01-02T21:03:10.877Z,9.80
2023-01-02T21:05:59.880Z,9.80
2023-01-02T21:08:48.918Z,9.70
2023-01-02T21:11:31.270Z,9.70
2023-01-02T21:14:19.856Z,9.70
2023-01-02T21:17:03.186Z,9.60
2023-01-02T21:19:51.840Z,9.60
2023-01-02T21:22:33.785Z,9.60
2023-01-02T21:25:22.907Z,9.60
2023-01-02T21:28:05.199Z,9.60
2023-01-02T21:30:53.902Z,9.60
2023-01-02T21:33:37.531Z,9.50
2023-01-02T21:36:37.840Z,9.50
2023-01-02T21:39:25.862Z,9.40
2023-01-02T21:42:19.207Z,9.40
2023-01-02T21:45:07.865Z,9.50
2023-01-02T21:47:50.060Z,9.50
2023-01-02T21:50:39.852Z,9.50
2023-01-02T21:53:30.503Z,9.50
2023-01-02T21:56:11.924Z,9.50
2023-01-02T21:58:54.960Z,9.60
2023-01-02T22:01:43.999Z,9.50
2023-01-02T22:04:25.810Z,9.50
2023-01-02T22:07:33.566Z,9.40
2023-01-02T22:10:23.849Z,9.40
2023-01-02T22:13:06.065Z,9.30
2023-01-02T22:15:54.840Z,9.30
2023-01-02T22:18:38.383Z,9.10
2023-01-02T22:21:26.833Z,9.10
2023-01-02T22:24:10.112Z,9.00
2023-01-02T22:26:59.897Z,9.00
2023-01-02T22:32:43.826Z,9.00
2023-01-02T22:35:31.871Z,8.90
2023-01-02T22:38:14.104Z,8.90
2023-01-02T22:41:03.852Z,8.90
2023-01-02T22:43:49.122Z,8.90
2023-01-02T22:46:41.917Z,8.90
2023-01-02T22:49:26.223Z,8.90
2023-01-02T22:52:15.538Z,8.90
2023-01-02T22:54:56.126Z,8.80
2023-01-02T22:57:51.115Z,8.70
2023-01-02T23:00:33.151Z,8.70
2023-01-02T23:03:23.127Z,8.70
2023-01-02T23:06:05.088Z,8.70
2023-01-02T23:08:53.990Z,8.70
2023-01-02T23:11:41.916Z,8.70
2023-01-02T23:14:25.148Z,8.70
2023-01-02T23:17:30.858Z,8.70
2023-01-02T23:20:13.038Z,8.70
2023-01-02T23:23:00.860Z,8.60
2023-01-02T23:25:44.585Z,8.60
2023-01-02T23:29:05.223Z,8.70
2023-01-02T23:31:35.493Z,8.70
2023-01-02T23:34:24.850Z,8.70
2023-01-02T23:37:06.974Z,8.70
2023-01-02T23:39:49.869Z,8.70
2023-01-02T23:42:38.952Z,8.80
2023-01-02T23:45:20.760Z,8.90
2023-01-02T23:48:10.857Z,9.00
2023-01-02T23:51:10.846Z,8.90
2023-01-02T23:53:58.865Z,8.80
2023-01-02T23:56:43.032Z,8.80
2023-01-02T23:59:32.870Z,8.90
